Time;durP1;ratioP1;P1;durP2;ratioP2;P2;SDS_P1;SDS_P2;PMS_P1;PMS_P2;Temp;Humidity;BMP_temperature;BMP_pressure;BME280_temperature;BME280_humidity;BME280_pressure;Samples;Min_cycle;Max_cycle;Signal;HPM_P1;HPM_P2
2022/11/17 09:35:08;;;;;;;4.03;1.80;;;;;;;11.84;100.00;97733.13;5127416;27;20552;-64
2022/11/17 09:37:34;;;;;;;1.70;1.47;;;;;;;11.94;100.00;97724.41;5127995;27;20231;-65
2022/11/17 09:40:01;;;;;;;3.77;2.10;;;;;;;12.13;100.00;97727.69;5127877;27;20192;-65
2022/11/17 09:42:29;;;;;;;1.63;1.40;;;;;;;12.28;100.00;97726.16;5127998;27;20239;-65
2022/11/17 09:45:02;;;;;;;4.23;1.60;;;;;;;12.57;100.00;97730.09;5127762;27;20197;-64
2022/11/17 09:47:39;;;;;;;1.40;1.20;;;;;;;13.11;100.00;97717.63;5127838;27;20212;-58
2022/11/17 09:50:21;;;;;;;1.87;1.40;;;;;;;13.11;100.00;97735.59;5127667;27;20200;-58
2022/11/17 09:52:57;;;;;;;2.50;1.47;;;;;;;12.96;100.00;97726.94;5127298;27;20232;-57
2022/11/17 09:55:29;;;;;;;1.63;1.37;;;;;;;13.01;100.00;97733.19;5127097;27;20196;-65
2022/11/17 09:58:06;;;;;;;2.83;1.03;;;;;;;13.20;100.00;97747.47;5127658;27;20221;-57
2022/11/17 10:00:35;;;;;;;2.13;1.53;;;;;;;14.03;100.00;97731.00;5127408;27;20232;-65
2022/11/17 10:03:01;;;;;;;0.80;0.80;;;;;;;14.35;100.00;97742.94;5127454;27;20229;-64
2022/11/17 10:05:33;;;;;;;2.03;1.73;;;;;;;14.75;100.00;97742.88;5127354;27;20304;-58
2022/11/17 10:08:03;;;;;;;2.00;1.30;;;;;;;14.57;99.21;97743.94;5127705;27;20223;-64
2022/11/17 10:10:39;;;;;;;1.70;1.30;;;;;;;14.20;98.95;97735.13;5127357;27;20284;-57
2022/11/17 10:13:14;;;;;;;2.10;1.77;;;;;;;13.87;100.00;97736.19;5127023;27;20226;-65
2022/11/17 10:15:46;;;;;;;2.47;1.27;;;;;;;13.78;100.00;97731.06;5127097;27;20204;-58
2022/11/17 10:18:14;;;;;;;0.97;0.97;;;;;;;13.76;100.00;97732.22;5127044;27;20310;-64
2022/11/17 10:20:44;;;;;;;1.90;1.27;;;;;;;13.80;100.00;97739.41;5126994;27;20282;-64
2022/11/17 10:23:14;;;;;;;1.03;1.00;;;;;;;13.67;99.98;97754.53;5127101;27;20235;-64
2022/11/17 10:25:42;;;;;;;1.30;1.10;;;;;;;13.59;99.59;97731.44;5126882;27;20647;-58
2022/11/17 10:28:24;;;;;;;1.27;1.17;;;;;;;13.55;99.33;97740.41;5126946;27;20712;-58
2022/11/17 10:30:59;;;;;;;1.17;0.90;;;;;;;13.65;100.00;97735.91;5126763;27;20192;-58
2022/11/17 10:33:35;;;;;;;1.50;1.20;;;;;;;13.65;98.43;97735.91;5127060;27;20255;-65
2022/11/17 10:36:06;;;;;;;3.03;1.43;;;;;;;13.52;99.44;97743.31;5112505;27;20203;-58
2022/11/17 10:38:34;;;;;;;1.77;1.20;;;;;;;13.47;99.13;97743.03;5113056;28;20217;-64
2022/11/17 10:41:03;;;;;;;1.97;1.73;;;;;;;13.42;99.22;97746.06;5112938;28;20198;-65
2022/11/17 10:43:32;;;;;;;1.93;1.43;;;;;;;13.23;99.28;97742.00;5113296;28;20294;-58
2022/11/17 10:46:03;;;;;;;4.87;1.80;;;;;;;13.25;99.96;97740.13;5112943;28;20281;-57
2022/11/17 10:48:32;;;;;;;1.67;1.10;;;;;;;13.18;99.67;97734.00;5113083;28;20226;-58
2022/11/17 10:51:01;;;;;;;3.70;1.70;;;;;;;13.52;99.64;97736.41;5113020;28;20723;-64
2022/11/17 10:53:35;;;;;;;2.47;1.80;;;;;;;13.66;98.88;97729.81;5113150;28;20225;-58
2022/11/17 10:56:13;;;;;;;1.23;0.97;;;;;;;13.75;98.39;97746.00;5113058;28;20507;-58
2022/11/17 10:59:03;;;;;;;1.77;1.07;;;;;;;14.15;96.35;97732.25;5112256;28;20218;-57
2022/11/17 11:01:33;;;;;;;2.37;1.80;;;;;;;14.72;95.48;97733.78;5112959;28;20195;-64
2022/11/17 11:04:01;;;;;;;2.83;1.90;;;;;;;15.21;93.32;97732.59;5112626;28;20225;-58
2022/11/17 11:06:29;;;;;;;2.50;1.70;;;;;;;14.73;92.82;97744.84;5113041;28;20200;-58
2022/11/17 11:09:00;;;;;;;1.63;1.23;;;;;;;14.43;93.70;97734.38;5112701;28;20303;-58
2022/11/17 11:11:40;;;;;;;2.10;0.93;;;;;;;14.87;93.15;97742.34;5112428;28;20761;-58
2022/11/17 11:14:15;;;;;;;1.53;1.40;;;;;;;15.33;91.18;97742.31;5112592;27;20221;-65
2022/11/17 11:16:46;;;;;;;1.70;1.60;;;;;;;15.41;89.08;97741.44;5112462;27;20189;-58
2022/11/17 11:19:15;;;;;;;2.27;1.50;;;;;;;15.45;89.67;97745.28;5112357;28;20452;-58
2022/11/17 11:21:57;;;;;;;2.23;1.50;;;;;;;15.66;89.17;97756.69;5112502;28;20212;-64
2022/11/17 11:24:34;;;;;;;1.23;1.00;;;;;;;15.98;87.77;97758.97;5112143;28;20293;-64
2022/11/17 11:27:17;;;;;;;3.30;1.40;;;;;;;15.78;86.58;97750.16;5112695;28;20308;-58
2022/11/17 11:29:56;;;;;;;1.60;1.30;;;;;;;15.59;88.34;97757.41;5112029;28;20225;-64
2022/11/17 11:32:30;;;;;;;2.30;1.70;;;;;;;15.81;87.45;97760.09;5112601;28;20228;-58
2022/11/17 11:35:27;;;;;;;2.70;1.83;;;;;;;15.99;87.35;97757.97;5112253;28;20208;-64
2022/11/17 11:38:02;;;;;;;2.10;1.90;;;;;;;15.95;86.83;97756.75;5106843;28;20226;-65
2022/11/17 11:40:35;;;;;;;3.27;2.20;;;;;;;16.13;86.66;97765.91;5111975;28;20608;-65
2022/11/17 11:43:12;;;;;;;1.63;1.10;;;;;;;16.33;85.00;97759.22;5112282;28;20713;-65
2022/11/17 11:45:51;;;;;;;2.60;1.73;;;;;;;16.09;85.07;97757.72;5111248;28;20276;-64
2022/11/17 11:48:22;;;;;;;1.73;1.60;;;;;;;16.35;83.91;97757.25;5111467;28;20216;-65
2022/11/17 11:50:53;;;;;;;1.10;0.90;;;;;;;16.38;83.65;97761.25;5111528;28;20204;-65
2022/11/17 11:53:29;;;;;;;2.07;1.07;;;;;;;16.33;83.58;97764.38;5112054;28;20301;-64
2022/11/17 11:56:07;;;;;;;1.43;1.10;;;;;;;16.32;82.66;97762.78;5111960;28;20304;-65
2022/11/17 11:58:38;;;;;;;1.63;1.03;;;;;;;16.38;81.60;97756.91;5111722;28;20228;-58
2022/11/17 12:01:06;;;;;;;1.47;1.07;;;;;;;16.09;81.21;97767.25;5111653;28;20206;-65
2022/11/17 12:03:36;;;;;;;1.53;1.43;;;;;;;15.78;82.84;97757.88;5111403;28;20237;-64
2022/11/17 12:09:29;;;;;;;1.10;0.70;;;;;;;16.05;82.51;97752.09;5111744;28;20221;-58
2022/11/17 12:12:02;;;;;;;0.87;0.87;;;;;;;15.74;83.34;97775.47;5111285;28;20206;-59
2022/11/17 12:14:30;;;;;;;1.40;1.30;;;;;;;15.95;82.39;97761.09;5111264;28;20217;-65
2022/11/17 12:17:03;;;;;;;1.20;0.93;;;;;;;16.06;82.18;97758.88;5111379;27;20743;-64
2022/11/17 12:19:58;;;;;;;3.40;0.97;;;;;;;15.89;83.98;97754.88;5111178;28;20210;-64
2022/11/17 12:23:09;;;;;;;2.07;0.83;;;;;;;15.88;84.11;97760.97;5075044;28;20205;-65
2022/11/17 12:25:45;;;;;;;1.20;1.10;;;;;;;15.98;82.49;97765.91;5047970;28;20204;-65
2022/11/17 12:28:35;;;;;;;1.23;0.70;;;;;;;16.06;82.30;97769.19;5047862;28;20232;-65
2022/11/17 12:31:04;;;;;;;1.57;0.90;;;;;;;16.03;83.38;97772.13;5094297;28;20263;-65
2022/11/17 12:34:07;;;;;;;1.10;0.90;;;;;;;16.04;83.28;97776.28;5110737;28;20711;-64
2022/11/17 12:36:35;;;;;;;1.63;1.10;;;;;;;16.14;83.71;97781.16;5100442;28;20688;-65
2022/11/17 12:39:04;;;;;;;1.30;0.70;;;;;;;15.83;83.61;97773.63;5110741;28;20215;-58
2022/11/17 12:42:06;;;;;;;1.10;0.97;;;;;;;15.79;84.22;97782.66;5110768;28;20327;-58
2022/11/17 12:45:04;;;;;;;1.03;0.77;;;;;;;15.83;83.95;97773.63;5110555;28;20264;-58
2022/11/17 12:47:32;;;;;;;3.20;1.17;;;;;;;15.59;84.31;97778.00;5110805;28;20205;-58
2022/11/17 12:50:33;;;;;;;1.70;1.20;;;;;;;15.38;84.95;97775.28;5110926;28;20199;-64
2022/11/17 12:53:31;;;;;;;1.70;1.17;;;;;;;15.34;85.50;97774.03;5110776;28;20567;-64
2022/11/17 12:56:22;;;;;;;0.60;0.60;;;;;;;15.31;85.26;97764.06;5110534;28;20193;-64
2022/11/17 12:59:00;;;;;;;0.93;0.83;;;;;;;15.54;85.84;97762.25;5110116;28;20733;-58
2022/11/17 13:01:39;;;;;;;1.50;1.40;;;;;;;15.50;84.71;97767.94;5110831;28;20292;-59
2022/11/17 13:04:11;;;;;;;1.23;1.00;;;;;;;15.42;86.56;97766.25;5110773;28;20232;-59
2022/11/17 13:06:38;;;;;;;1.53;1.10;;;;;;;15.24;85.71;97768.28;5110464;28;20194;-64
2022/11/17 13:09:06;;;;;;;1.87;1.30;;;;;;;15.35;86.66;97771.25;5110432;28;20221;-64
2022/11/17 13:11:34;;;;;;;2.07;1.10;;;;;;;15.50;85.37;97768.72;5110305;28;20198;-58
2022/11/17 13:14:09;;;;;;;1.37;1.27;;;;;;;15.57;84.46;97779.16;5110629;28;20232;-64
2022/11/17 13:16:43;;;;;;;1.00;0.90;;;;;;;15.55;84.46;97774.16;5110251;28;20276;-64
2022/11/17 13:19:31;;;;;;;1.50;1.03;;;;;;;15.68;84.28;97781.34;5110402;28;20233;-64
2022/11/17 13:21:59;;;;;;;2.23;1.00;;;;;;;15.55;84.41;97787.03;5110571;28;20197;-59
2022/11/17 13:24:31;;;;;;;1.37;0.77;;;;;;;15.52;83.49;97789.97;5110544;28;20236;-58
2022/11/17 13:26:59;;;;;;;1.37;1.17;;;;;;;15.51;83.89;97796.09;5110346;28;20246;-63
2022/11/17 13:29:26;;;;;;;1.30;0.93;;;;;;;15.46;84.23;97793.25;5110514;28;20224;-64
2022/11/17 13:32:20;;;;;;;1.87;1.50;;;;;;;15.48;85.16;97796.44;5110120;28;20376;-63
2022/11/17 13:34:49;;;;;;;2.37;1.27;;;;;;;15.05;84.57;97793.53;5109935;28;20225;-64
2022/11/17 13:37:19;;;;;;;1.30;1.20;;;;;;;15.04;85.51;97804.81;5109904;28;20194;-58
2022/11/17 13:39:56;;;;;;;0.70;0.70;;;;;;;14.90;85.67;97803.78;5109887;28;20228;-64
2022/11/17 13:42:25;;;;;;;1.87;1.23;;;;;;;14.85;85.57;97806.03;5110235;28;20216;-58
2022/11/17 13:44:54;;;;;;;1.30;1.10;;;;;;;14.83;86.26;97809.75;5109818;28;20244;-64
2022/11/17 13:47:28;;;;;;;1.07;0.97;;;;;;;14.75;86.03;97804.63;5109904;28;20201;-64
2022/11/17 13:49:55;;;;;;;3.30;1.30;;;;;;;14.54;87.30;97808.59;5109914;28;20227;-58
2022/11/17 13:52:41;;;;;;;1.20;0.83;;;;;;;14.55;87.34;97812.78;5109704;28;20284;-63
2022/11/17 13:55:16;;;;;;;1.80;0.93;;;;;;;14.48;87.70;97817.75;5110107;28;20193;-57
2022/11/17 13:57:54;;;;;;;1.20;1.10;;;;;;;14.35;87.75;97814.13;5109878;28;20688;-63
2022/11/17 14:00:22;;;;;;;1.97;0.90;;;;;;;14.17;88.02;97811.78;5109760;28;20209;-64
2022/11/17 14:02:55;;;;;;;1.00;0.90;;;;;;;14.11;87.63;97823.50;5109892;28;20198;-63
2022/11/17 14:05:24;;;;;;;1.00;0.90;;;;;;;14.00;88.04;97827.22;5109989;28;20243;-59
2022/11/17 14:07:53;;;;;;;1.20;0.73;;;;;;;13.89;88.24;97821.63;5109669;28;20220;-58
2022/11/17 14:10:32;;;;;;;1.10;0.67;;;;;;;13.92;88.74;97834.13;5111706;28;20607;-64
2022/11/17 14:13:22;;;;;;;0.63;0.57;;;;;;;13.77;89.18;97832.22;5113656;28;20280;-63
2022/11/17 14:15:58;;;;;;;1.07;0.73;;;;;;;13.68;88.70;97833.19;5113462;28;20775;-58
2022/11/17 14:18:33;;;;;;;0.57;0.57;;;;;;;13.51;90.00;97832.38;5113649;27;20219;-58
2022/11/17 14:21:12;;;;;;;0.70;0.63;;;;;;;13.41;90.28;97847.16;5113406;28;20209;-64
2022/11/17 14:23:39;;;;;;;1.07;0.80;;;;;;;13.39;90.20;97830.31;5113551;28;20241;-64
2022/11/17 14:26:14;;;;;;;0.57;0.57;;;;;;;13.29;90.48;97838.97;5113457;28;20689;-64
2022/11/17 14:28:41;;;;;;;1.83;1.10;;;;;;;13.26;91.10;97839.25;5113203;28;20705;-58
2022/11/17 14:31:11;;;;;;;1.03;0.73;;;;;;;13.21;91.19;97836.34;5113215;28;20248;-64
2022/11/17 14:33:40;;;;;;;1.60;0.87;;;;;;;13.07;91.85;97836.97;5113379;28;20260;-58
2022/11/17 14:36:11;;;;;;;1.30;0.97;;;;;;;13.00;92.70;97834.22;5113171;28;20207;-64
2022/11/17 14:38:38;;;;;;;2.57;1.47;;;;;;;12.95;93.38;97835.66;5112957;28;20223;-63
2022/11/17 14:41:05;;;;;;;1.27;1.00;;;;;;;12.83;93.99;97833.38;5112982;28;20669;-64
2022/11/17 14:43:32;;;;;;;0.73;0.73;;;;;;;12.80;93.99;97833.69;5113509;27;20506;-63
2022/11/17 14:45:59;;;;;;;0.87;0.77;;;;;;;12.69;94.71;97836.53;5113218;27;20226;-63
2022/11/17 14:48:26;;;;;;;0.67;0.67;;;;;;;12.61;94.74;97839.84;5113059;28;20278;-64
2022/11/17 14:50:57;;;;;;;0.47;0.47;;;;;;;12.55;94.96;97850.72;5112981;28;21015;-57
2022/11/17 14:53:25;;;;;;;1.80;0.90;;;;;;;12.49;95.06;97846.22;5113251;28;20221;-63
2022/11/17 14:55:52;;;;;;;1.93;0.80;;;;;;;12.46;95.11;97857.59;5112634;28;20216;-57
2022/11/17 14:58:19;;;;;;;5.77;0.93;;;;;;;12.37;95.47;97853.38;5112958;28;20217;-58
2022/11/17 15:00:46;;;;;;;1.23;1.13;;;;;;;12.29;96.09;97855.09;5112564;28;20314;-63
2022/11/17 15:03:13;;;;;;;1.00;0.67;;;;;;;12.20;96.67;97855.03;5112603;28;20278;-58
2022/11/17 15:05:44;;;;;;;4.43;0.83;;;;;;;12.14;96.63;97862.53;5112821;28;20229;-58
2022/11/17 15:08:13;;;;;;;0.83;0.67;;;;;;;12.14;96.83;97852.28;5112735;28;20224;-58
2022/11/17 15:10:43;;;;;;;1.30;0.90;;;;;;;12.10;96.80;97856.09;5112643;28;20284;-64
2022/11/17 15:13:10;;;;;;;1.23;1.13;;;;;;;12.05;97.25;97863.44;5112630;28;20249;-63
2022/11/17 15:15:36;;;;;;;1.00;0.93;;;;;;;11.99;98.17;97865.63;5112450;28;20209;-57
2022/11/17 15:18:03;;;;;;;1.40;1.17;;;;;;;11.90;98.28;97861.41;5112457;28;20649;-63
2022/11/17 15:20:30;;;;;;;1.87;1.30;;;;;;;11.91;98.36;97863.03;5112343;28;20349;-64
2022/11/17 15:22:57;;;;;;;1.97;1.13;;;;;;;11.86;98.83;97860.09;5112764;28;20221;-60
2022/11/17 15:25:25;;;;;;;0.77;0.67;;;;;;;11.79;98.98;97871.88;5111977;28;20240;-58
2022/11/17 15:27:53;;;;;;;2.30;1.30;;;;;;;11.68;99.37;97878.00;5112354;28;20217;-57
2022/11/17 15:30:20;;;;;;;2.40;1.37;;;;;;;11.62;99.52;97880.38;5112098;28;20216;-57
2022/11/17 15:32:46;;;;;;;1.00;1.00;;;;;;;11.55;99.58;97883.50;5111923;28;20201;-57
2022/11/17 15:35:13;;;;;;;0.70;0.70;;;;;;;11.52;99.67;97883.81;5112000;28;20200;-57
2022/11/17 15:37:40;;;;;;;1.30;0.90;;;;;;;11.44;99.88;97886.28;5111760;27;20193;-57
2022/11/17 15:40:08;;;;;;;1.03;0.60;;;;;;;11.39;99.87;97874.88;5111876;28;20200;-58
2022/11/17 15:42:36;;;;;;;2.40;1.87;;;;;;;11.33;99.98;97878.81;5111756;28;20194;-57
2022/11/17 15:45:03;;;;;;;1.57;1.27;;;;;;;11.25;99.63;97876.97;5111976;28;20225;-64
2022/11/17 15:47:30;;;;;;;1.53;1.27;;;;;;;11.19;99.81;97884.44;5111757;28;20200;-57
2022/11/17 15:49:57;;;;;;;0.60;0.60;;;;;;;11.13;99.52;97883.25;5111813;28;20567;-64
2022/11/17 15:52:24;;;;;;;1.50;1.40;;;;;;;11.12;99.42;97896.19;5111798;28;20209;-57
2022/11/17 15:54:51;;;;;;;1.53;1.10;;;;;;;11.02;99.68;97886.81;5111616;28;20304;-63
2022/11/17 15:57:18;;;;;;;1.00;0.90;;;;;;;11.05;99.23;97894.22;5111489;28;20232;-63
2022/11/17 15:59:46;;;;;;;2.20;1.20;;;;;;;11.02;98.97;97907.25;5111801;28;20213;-63
2022/11/17 16:02:13;;;;;;;1.30;1.13;;;;;;;11.00;99.16;97898.16;5111679;28;20204;-64
2022/11/17 16:04:40;;;;;;;2.17;1.33;;;;;;;11.00;98.79;97900.72;5111513;28;20319;-58
2022/11/17 16:07:07;;;;;;;0.77;0.73;;;;;;;11.01;98.82;97905.66;5111424;28;20639;-64
2022/11/17 16:09:34;;;;;;;1.60;1.50;;;;;;;10.92;98.92;97919.31;5111564;28;20249;-58
2022/11/17 16:12:01;;;;;;;0.70;0.70;;;;;;;10.93;99.22;97928.56;5111562;28;20289;-64
2022/11/17 16:14:28;;;;;;;1.10;0.67;;;;;;;10.92;99.29;97929.53;5111588;28;20308;-57
2022/11/17 16:16:56;;;;;;;1.67;1.47;;;;;;;10.80;99.00;97938.34;5111267;28;20270;-57
2022/11/17 16:19:22;;;;;;;1.50;1.37;;;;;;;10.65;99.69;97933.69;5111287;28;20229;-64
2022/11/17 16:21:50;;;;;;;0.80;0.80;;;;;;;10.55;100.00;97940.56;5111272;28;20212;-64
2022/11/17 16:24:16;;;;;;;2.37;1.17;;;;;;;10.55;100.00;97942.31;5111371;28;20228;-58
2022/11/17 16:26:44;;;;;;;1.27;1.00;;;;;;;10.43;100.00;97946.78;5111068;28;20672;-64
2022/11/17 16:29:12;;;;;;;1.40;1.20;;;;;;;10.42;100.00;97945.97;5111130;28;20209;-57
2022/11/17 16:31:39;;;;;;;1.97;1.47;;;;;;;10.40;100.00;97954.72;5111027;28;20197;-64
2022/11/17 16:34:11;;;;;;;1.43;1.20;;;;;;;10.23;100.00;97955.38;5110671;28;20270;-58
2022/11/17 16:36:39;;;;;;;1.87;1.50;;;;;;;10.17;100.00;97966.94;5110969;28;20304;-64
2022/11/17 16:39:08;;;;;;;1.40;1.17;;;;;;;10.13;100.00;97970.72;5110889;28;20213;-58
2022/11/17 16:41:36;;;;;;;1.93;1.53;;;;;;;10.15;100.00;97973.94;5110707;28;20669;-57
2022/11/17 16:44:08;;;;;;;2.43;1.33;;;;;;;10.14;99.85;97968.03;5110730;28;20643;-63
2022/11/17 16:46:34;;;;;;;1.10;1.00;;;;;;;10.05;100.00;97968.84;5110770;28;20236;-63
2022/11/17 16:49:03;;;;;;;3.30;2.07;;;;;;;10.02;99.97;97968.31;5110934;28;20213;-64
2022/11/17 16:51:32;;;;;;;4.13;2.23;;;;;;;9.95;99.24;97970.59;5110745;28;20204;-64
2022/11/17 16:54:01;;;;;;;1.47;1.37;;;;;;;9.97;99.17;97971.25;5111044;28;20248;-57
2022/11/17 16:56:28;;;;;;;1.87;1.30;;;;;;;9.91;99.18;97977.69;5110578;28;20197;-63
2022/11/17 16:58:54;;;;;;;1.13;1.03;;;;;;;9.96;99.47;97972.22;5110876;28;20613;-57
2022/11/17 17:01:24;;;;;;;2.00;1.20;;;;;;;9.92;99.57;97983.63;5110676;27;20197;-64
2022/11/17 17:03:55;;;;;;;1.47;1.27;;;;;;;9.75;99.86;97985.91;5110402;28;20213;-64
2022/11/17 17:06:23;;;;;;;1.23;1.13;;;;;;;9.79;100.00;97993.28;5110436;28;20824;-63
2022/11/17 17:08:54;;;;;;;2.10;1.00;;;;;;;9.71;100.00;97993.94;5110244;28;20228;-57
2022/11/17 17:11:21;;;;;;;4.17;1.53;;;;;;;9.70;100.00;97995.69;5110382;28;20209;-58
2022/11/17 17:13:48;;;;;;;1.43;1.33;;;;;;;9.68;100.00;97997.56;5110549;28;20224;-58
2022/11/17 17:16:17;;;;;;;0.97;0.83;;;;;;;9.66;100.00;97999.47;5110441;28;20327;-57
2022/11/17 17:18:44;;;;;;;3.20;1.17;;;;;;;9.60;100.00;98010.19;5110456;28;20228;-57
2022/11/17 17:21:13;;;;;;;3.80;0.83;;;;;;;9.69;99.67;98009.41;5110169;28;20193;-57
2022/11/17 17:23:40;;;;;;;1.50;0.87;;;;;;;9.68;99.25;98004.41;5110483;28;20572;-64
2022/11/17 17:26:12;;;;;;;2.10;1.43;;;;;;;9.67;99.13;98006.16;5110205;28;20255;-57
2022/11/17 17:28:42;;;;;;;1.67;1.57;;;;;;;9.67;99.13;98001.06;5109966;28;20224;-64
2022/11/17 17:31:09;;;;;;;0.70;0.70;;;;;;;9.64;99.52;98003.88;5110046;28;20198;-57
2022/11/17 17:33:37;;;;;;;2.80;1.50;;;;;;;9.59;99.69;97998.34;5110043;28;20754;-64
2022/11/17 17:36:05;;;;;;;3.50;1.50;;;;;;;9.56;99.92;98003.72;5110256;28;20273;-57
2022/11/17 17:38:32;;;;;;;1.23;1.00;;;;;;;9.57;99.86;98005.34;5110335;28;20217;-64
2022/11/17 17:41:05;;;;;;;2.40;1.63;;;;;;;9.51;100.00;98010.94;5110245;28;20208;-57
2022/11/17 17:43:33;;;;;;;0.73;0.73;;;;;;;9.49;99.98;98013.66;5110244;28;20213;-63
2022/11/17 17:46:00;;;;;;;1.13;1.10;;;;;;;9.52;100.00;98012.59;5113625;28;20665;-63
2022/11/17 17:48:27;;;;;;;1.03;0.73;;;;;;;9.47;100.00;98014.72;5114113;28;20221;-57
2022/11/17 17:50:54;;;;;;;0.60;0.60;;;;;;;9.37;100.00;98019.00;5114099;28;20193;-57
2022/11/17 17:53:20;;;;;;;2.00;1.33;;;;;;;9.32;100.00;98016.03;5114137;28;20225;-57
2022/11/17 17:55:47;;;;;;;2.83;1.10;;;;;;;9.32;100.00;98026.22;5114177;28;20193;-57
2022/11/17 17:58:14;;;;;;;0.90;0.90;;;;;;;9.33;100.00;98022.72;5113747;28;20213;-64
2022/11/17 18:00:42;;;;;;;3.47;0.53;;;;;;;9.34;99.40;98031.97;5114123;28;20204;-64
2022/11/17 18:03:09;;;;;;;2.67;1.20;;;;;;;9.36;98.72;98027.56;5113831;28;20708;-64
2022/11/17 18:05:35;;;;;;;1.23;1.03;;;;;;;9.35;98.88;98025.97;5113725;28;20225;-64
2022/11/17 18:08:03;;;;;;;0.70;0.70;;;;;;;9.34;98.62;98034.53;5113568;28;20228;-58
2022/11/17 18:10:30;;;;;;;1.43;1.13;;;;;;;9.34;98.39;98039.63;5114061;28;20250;-64
2022/11/17 18:12:57;;;;;;;1.03;1.03;;;;;;;9.33;98.05;98032.94;5113634;28;20243;-64
2022/11/17 18:15:23;;;;;;;2.07;1.53;;;;;;;9.27;98.38;98040.16;5113775;28;20749;-57
2022/11/17 18:17:51;;;;;;;1.30;1.20;;;;;;;9.24;98.64;98030.22;5113505;28;20221;-63
2022/11/17 18:20:18;;;;;;;2.20;1.57;;;;;;;9.18;98.79;98040.91;5113595;28;20673;-63
2022/11/17 18:22:45;;;;;;;0.93;0.63;;;;;;;9.17;98.08;98039.31;5113667;28;20209;-63
2022/11/17 18:25:12;;;;;;;2.03;0.97;;;;;;;9.15;98.48;98040.38;5113382;28;20228;-64
2022/11/17 18:27:39;;;;;;;1.63;1.23;;;;;;;9.14;98.56;98029.38;5113296;28;20675;-63
2022/11/17 18:30:07;;;;;;;1.90;1.23;;;;;;;9.08;97.47;98029.88;5113342;28;20197;-64
2022/11/17 18:32:34;;;;;;;1.10;1.00;;;;;;;9.16;97.31;98032.63;5113336;28;20200;-57
2022/11/17 18:35:02;;;;;;;4.77;1.23;;;;;;;9.16;97.43;98037.72;5113308;28;20216;-57
2022/11/17 18:37:28;;;;;;;1.00;0.77;;;;;;;9.13;97.39;98053.25;5113215;28;20304;-63
2022/11/17 18:39:55;;;;;;;0.77;0.70;;;;;;;9.11;97.12;98052.56;5113235;28;20201;-57
2022/11/17 18:42:22;;;;;;;1.90;1.33;;;;;;;9.10;96.95;98043.28;5113207;28;20201;-63
2022/11/17 18:44:49;;;;;;;1.90;1.40;;;;;;;9.04;96.95;98054.00;5112828;27;20217;-57
2022/11/17 18:47:17;;;;;;;2.23;1.40;;;;;;;9.01;97.21;98054.25;5113190;28;20254;-57
2022/11/17 18:49:44;;;;;;;0.60;0.60;;;;;;;9.01;96.89;98059.34;5112788;28;20213;-57
2022/11/17 18:52:12;;;;;;;1.40;1.03;;;;;;;9.06;96.58;98058.03;5112841;28;20255;-57
2022/11/17 18:54:39;;;;;;;1.57;1.23;;;;;;;9.05;96.10;98055.63;5113019;28;20220;-57
2022/11/17 18:57:06;;;;;;;2.10;1.90;;;;;;;9.05;96.24;98056.44;5112489;28;20269;-57
2022/11/17 18:59:33;;;;;;;4.97;2.30;;;;;;;9.06;96.12;98057.25;5112907;28;20240;-57
2022/11/17 19:02:00;;;;;;;1.33;0.90;;;;;;;9.08;96.31;98055.38;5112816;28;20201;-63
2022/11/17 19:04:28;;;;;;;2.07;1.20;;;;;;;9.05;96.18;98065.84;5112438;27;20233;-57
2022/11/17 19:06:55;;;;;;;0.90;0.83;;;;;;;8.98;96.67;98060.41;5112722;28;20225;-57
2022/11/17 19:09:24;;;;;;;1.93;0.77;;;;;;;8.92;96.91;98060.13;5112379;28;20248;-57
2022/11/17 19:11:52;;;;;;;5.17;0.87;;;;;;;8.89;97.01;98061.16;5112522;28;20250;-57
2022/11/17 19:14:19;;;;;;;3.40;1.13;;;;;;;8.87;96.93;98064.78;5112403;28;20213;-63
2022/11/17 19:16:45;;;;;;;1.33;1.17;;;;;;;8.93;96.47;98064.28;5112558;28;20205;-57
2022/11/17 19:19:13;;;;;;;0.87;0.87;;;;;;;8.96;96.22;98064.84;5112153;28;20242;-57
2022/11/17 19:21:40;;;;;;;1.47;1.37;;;;;;;8.96;96.49;98058.91;5112319;28;20255;-57
2022/11/17 19:24:07;;;;;;;1.03;0.77;;;;;;;8.95;96.87;98059.88;5112474;28;20213;-57
2022/11/17 19:26:36;;;;;;;3.70;1.30;;;;;;;8.96;96.52;98061.47;5112216;28;20663;-57
2022/11/17 19:29:05;;;;;;;2.83;1.07;;;;;;;8.92;96.55;98063.47;5112397;28;20221;-57
2022/11/17 19:31:32;;;;;;;1.67;0.97;;;;;;;8.94;96.18;98068.47;5112456;28;20301;-57
2022/11/17 19:33:59;;;;;;;1.10;1.00;;;;;;;8.86;96.19;98065.72;5112534;28;20225;-64
2022/11/17 19:36:28;;;;;;;1.23;1.07;;;;;;;8.79;96.54;98073.88;5112147;28;20696;-57
2022/11/17 19:38:56;;;;;;;2.70;1.00;;;;;;;8.79;97.08;98075.63;5112004;28;20225;-57
2022/11/17 19:41:25;;;;;;;2.57;0.73;;;;;;;8.70;97.14;98079.72;5112012;28;20201;-63
2022/11/17 19:43:54;;;;;;;0.73;0.73;;;;;;;8.64;97.25;98087.84;5111876;28;20216;-63
2022/11/17 19:46:22;;;;;;;1.23;0.83;;;;;;;8.73;96.36;98086.31;5111756;28;20228;-57
2022/11/17 19:48:49;;;;;;;2.03;1.13;;;;;;;8.73;96.20;98091.41;5112012;28;20218;-63
2022/11/17 19:51:18;;;;;;;1.20;0.87;;;;;;;8.79;96.27;98086.59;5111791;28;20620;-57
2022/11/17 19:53:45;;;;;;;1.10;0.70;;;;;;;8.83;95.50;98087.16;5111696;28;20311;-63
2022/11/17 19:56:12;;;;;;;0.50;0.50;;;;;;;8.86;95.66;98076.72;5111602;28;20205;-64
2022/11/17 19:58:40;;;;;;;0.70;0.70;;;;;;;8.90;95.01;98082.38;5111403;27;20221;-58
2022/11/17 20:01:13;;;;;;;0.33;0.33;;;;;;;8.98;94.98;98080.00;5111954;28;20259;-63
2022/11/17 20:03:40;;;;;;;0.90;0.67;;;;;;;8.99;94.78;98081.66;5111348;28;20217;-63
2022/11/17 20:06:08;;;;;;;0.57;0.40;;;;;;;8.99;94.68;98071.44;5111584;28;20220;-57
2022/11/17 20:08:35;;;;;;;2.57;0.90;;;;;;;8.92;94.59;98077.97;5110559;28;20662;-57
2022/11/17 20:11:06;;;;;;;0.60;0.60;;;;;;;8.90;94.71;98069.63;5111684;28;20204;-64
2022/11/17 20:13:33;;;;;;;0.57;0.57;;;;;;;8.88;94.91;98069.75;5111724;28;20228;-63
2022/11/17 20:16:01;;;;;;;1.40;0.87;;;;;;;8.87;95.13;98072.41;5111478;28;20671;-64
2022/11/17 20:18:29;;;;;;;1.30;0.77;;;;;;;8.86;95.19;98070.81;5111389;28;20217;-57
2022/11/17 20:20:56;;;;;;;2.70;1.50;;;;;;;8.82;95.51;98071.06;5111300;27;20193;-57
2022/11/17 20:23:23;;;;;;;1.67;0.90;;;;;;;8.83;95.73;98072.66;5111551;28;20369;-63
2022/11/17 20:25:50;;;;;;;0.87;0.57;;;;;;;8.89;95.64;98073.91;5110855;28;20228;-63
2022/11/17 20:28:17;;;;;;;1.00;0.97;;;;;;;8.89;95.63;98076.47;5111238;28;20224;-63
2022/11/17 20:30:44;;;;;;;0.17;0.17;;;;;;;8.88;95.19;98079.16;5111050;27;20198;-64
2022/11/17 20:33:10;;;;;;;0.70;0.70;;;;;;;8.83;95.19;98074.41;5110869;28;20808;-64
2022/11/17 20:35:38;;;;;;;1.73;1.00;;;;;;;8.78;95.63;98079.88;5110915;28;20684;-57
2022/11/17 20:38:05;;;;;;;1.33;1.07;;;;;;;8.71;95.62;98078.78;5110906;28;20217;-63
2022/11/17 20:40:32;;;;;;;1.00;0.30;;;;;;;8.67;95.98;98081.69;5111096;28;20635;-64
2022/11/17 20:42:59;;;;;;;2.37;0.97;;;;;;;8.64;95.75;98081.94;5111131;28;20213;-63
2022/11/17 20:45:28;;;;;;;1.40;0.50;;;;;;;8.47;96.36;98084.09;5110627;28;20262;-57
2022/11/17 20:47:55;;;;;;;0.77;0.77;;;;;;;8.39;96.77;98082.16;5110526;28;20311;-57
2022/11/17 20:50:22;;;;;;;0.63;0.63;;;;;;;8.34;97.49;98080.88;5110758;28;20200;-59
2022/11/17 20:52:50;;;;;;;1.33;0.90;;;;;;;8.30;97.83;98077.75;5110908;28;20197;-63
2022/11/17 20:55:16;;;;;;;0.97;0.67;;;;;;;8.30;98.51;98070.13;5110606;28;20205;-57
2022/11/17 20:57:43;;;;;;;0.33;0.30;;;;;;;8.31;98.64;98076.00;5110794;28;20578;-64
2022/11/17 21:00:11;;;;;;;0.63;0.63;;;;;;;8.34;98.71;98080.88;5110565;28;20586;-63
2022/11/17 21:02:38;;;;;;;0.73;0.50;;;;;;;8.37;98.84;98083.97;5110404;28;20201;-63
2022/11/17 21:05:06;;;;;;;0.40;0.40;;;;;;;8.35;98.68;98085.84;5110591;28;20201;-64
2022/11/17 21:07:33;;;;;;;1.00;0.73;;;;;;;8.25;98.94;98082.41;5110394;28;20229;-63
2022/11/17 21:10:01;;;;;;;1.50;0.90;;;;;;;8.24;99.09;98073.16;5110536;28;20200;-64
2022/11/17 21:12:28;;;;;;;1.80;0.90;;;;;;;8.19;99.53;98082.88;5110303;28;20208;-57
2022/11/17 21:14:55;;;;;;;1.10;0.97;;;;;;;8.11;99.78;98090.31;5110182;28;20245;-64
2022/11/17 21:20:06;;;;;;;1.50;1.30;;;;;;;8.04;100.00;98073.91;5110301;28;20335;-57
2022/11/17 21:22:33;;;;;;;2.80;0.97;;;;;;;8.03;100.00;98077.38;5110197;28;20695;-63
2022/11/17 21:25:01;;;;;;;2.50;1.00;;;;;;;8.01;100.00;98074.16;5110485;28;20669;-63
2022/11/17 21:27:28;;;;;;;1.33;0.80;;;;;;;8.05;100.00;98080.59;5110735;28;20240;-64
2022/11/17 21:29:55;;;;;;;1.00;0.90;;;;;;;8.10;100.00;98089.50;5110155;28;20606;-57
2022/11/17 21:32:21;;;;;;;0.70;0.70;;;;;;;8.10;100.00;98091.25;5110463;28;20205;-63